sensor_id;sensor_type;location;lat;lon;timestamp;P1;durP1;ratioP1;P2;durP2;ratioP2
8088;SDS011;57635;49.194;12.104;2023-08-24T00:01:14;7.37;;;6.60;;
8088;SDS011;57635;49.194;12.104;2023-08-24T00:03:44;7.37;;;6.77;;
8088;SDS011;57635;49.194;12.104;2023-08-24T00:06:12;7.73;;;7.03;;
8088;SDS011;57635;49.194;12.104;2023-08-24T00:08:40;7.40;;;6.90;;
8088;SDS011;57635;49.194;12.104;2023-08-24T00:11:10;7.50;;;7.07;;
8088;SDS011;57635;49.194;12.104;2023-08-24T00:13:41;7.33;;;6.80;;
8088;SDS011;57635;49.194;12.104;2023-08-24T00:16:12;7.97;;;7.20;;
8088;SDS011;57635;49.194;12.104;2023-08-24T00:18:40;8.07;;;7.50;;
8088;SDS011;57635;49.194;12.104;2023-08-24T00:21:09;6.97;;;6.57;;
8088;SDS011;57635;49.194;12.104;2023-08-24T00:23:36;8.03;;;7.53;;
8088;SDS011;57635;49.194;12.104;2023-08-24T00:26:04;7.93;;;7.40;;
8088;SDS011;57635;49.194;12.104;2023-08-24T00:28:34;10.53;;;7.73;;
8088;SDS011;57635;49.194;12.104;2023-08-24T00:31:02;8.73;;;7.93;;
8088;SDS011;57635;49.194;12.104;2023-08-24T00:33:29;8.27;;;7.73;;
8088;SDS011;57635;49.194;12.104;2023-08-24T00:35:59;8.90;;;8.30;;
8088;SDS011;57635;49.194;12.104;2023-08-24T00:38:28;8.70;;;8.10;;
8088;SDS011;57635;49.194;12.104;2023-08-24T00:40:56;9.03;;;8.33;;
8088;SDS011;57635;49.194;12.104;2023-08-24T00:43:25;8.13;;;7.63;;
8088;SDS011;57635;49.194;12.104;2023-08-24T00:45:56;8.67;;;7.97;;
8088;SDS011;57635;49.194;12.104;2023-08-24T00:48:24;8.27;;;7.77;;
8088;SDS011;57635;49.194;12.104;2023-08-24T00:50:54;8.50;;;7.90;;
8088;SDS011;57635;49.194;12.104;2023-08-24T00:53:22;8.63;;;8.03;;
8088;SDS011;57635;49.194;12.104;2023-08-24T00:55:52;8.17;;;7.47;;
8088;SDS011;57635;49.194;12.104;2023-08-24T00:58:20;9.23;;;8.53;;
8088;SDS011;57635;49.194;12.104;2023-08-24T01:00:48;8.80;;;8.20;;
8088;SDS011;57635;49.194;12.104;2023-08-24T01:03:17;8.57;;;7.77;;
8088;SDS011;57635;49.194;12.104;2023-08-24T01:05:45;8.33;;;7.83;;
8088;SDS011;57635;49.194;12.104;2023-08-24T01:08:13;9.00;;;8.33;;
8088;SDS011;57635;49.194;12.104;2023-08-24T01:10:45;9.03;;;8.30;;
8088;SDS011;57635;49.194;12.104;2023-08-24T01:13:17;9.87;;;9.07;;
8088;SDS011;57635;49.194;12.104;2023-08-24T01:15:51;8.03;;;7.37;;
8088;SDS011;57635;49.194;12.104;2023-08-24T01:18:23;9.27;;;8.53;;
8088;SDS011;57635;49.194;12.104;2023-08-24T01:20:53;9.60;;;8.93;;
8088;SDS011;57635;49.194;12.104;2023-08-24T01:23:28;8.93;;;8.27;;
8088;SDS011;57635;49.194;12.104;2023-08-24T01:26:04;8.93;;;8.33;;
8088;SDS011;57635;49.194;12.104;2023-08-24T01:28:34;8.60;;;7.90;;
8088;SDS011;57635;49.194;12.104;2023-08-24T01:31:03;9.20;;;8.60;;
8088;SDS011;57635;49.194;12.104;2023-08-24T01:33:31;9.03;;;8.33;;
8088;SDS011;57635;49.194;12.104;2023-08-24T01:35:59;9.37;;;8.53;;
8088;SDS011;57635;49.194;12.104;2023-08-24T01:38:26;8.20;;;7.70;;
8088;SDS011;57635;49.194;12.104;2023-08-24T01:40:56;9.63;;;8.73;;
8088;SDS011;57635;49.194;12.104;2023-08-24T01:43:29;8.80;;;8.00;;
8088;SDS011;57635;49.194;12.104;2023-08-24T01:46:09;8.27;;;7.67;;
8088;SDS011;57635;49.194;12.104;2023-08-24T01:48:39;9.87;;;9.17;;
8088;SDS011;57635;49.194;12.104;2023-08-24T01:51:07;8.73;;;8.13;;
8088;SDS011;57635;49.194;12.104;2023-08-24T01:53:36;9.57;;;8.57;;
8088;SDS011;57635;49.194;12.104;2023-08-24T01:56:09;9.23;;;8.43;;
8088;SDS011;57635;49.194;12.104;2023-08-24T01:58:39;8.37;;;7.80;;
8088;SDS011;57635;49.194;12.104;2023-08-24T02:01:06;8.67;;;7.97;;
8088;SDS011;57635;49.194;12.104;2023-08-24T02:03:34;8.57;;;7.87;;
8088;SDS011;57635;49.194;12.104;2023-08-24T02:06:02;9.07;;;8.37;;
8088;SDS011;57635;49.194;12.104;2023-08-24T02:08:31;8.93;;;8.17;;
8088;SDS011;57635;49.194;12.104;2023-08-24T02:10:59;9.27;;;8.37;;
8088;SDS011;57635;49.194;12.104;2023-08-24T02:13:26;9.77;;;8.77;;
8088;SDS011;57635;49.194;12.104;2023-08-24T02:16:02;10.20;;;9.27;;
8088;SDS011;57635;49.194;12.104;2023-08-24T02:18:30;8.53;;;7.77;;
8088;SDS011;57635;49.194;12.104;2023-08-24T02:20:58;8.93;;;8.33;;
8088;SDS011;57635;49.194;12.104;2023-08-24T02:23:25;9.07;;;8.37;;
8088;SDS011;57635;49.194;12.104;2023-08-24T02:25:53;9.50;;;8.70;;
8088;SDS011;57635;49.194;12.104;2023-08-24T02:28:21;9.67;;;8.87;;
8088;SDS011;57635;49.194;12.104;2023-08-24T02:30:48;10.27;;;9.47;;
8088;SDS011;57635;49.194;12.104;2023-08-24T02:33:17;9.47;;;8.83;;
8088;SDS011;57635;49.194;12.104;2023-08-24T02:35:46;10.43;;;9.63;;
8088;SDS011;57635;49.194;12.104;2023-08-24T02:38:14;10.93;;;9.93;;
8088;SDS011;57635;49.194;12.104;2023-08-24T02:40:42;9.60;;;8.90;;
8088;SDS011;57635;49.194;12.104;2023-08-24T02:43:09;10.23;;;9.33;;
8088;SDS011;57635;49.194;12.104;2023-08-24T02:45:37;9.60;;;8.90;;
8088;SDS011;57635;49.194;12.104;2023-08-24T02:48:05;9.50;;;8.73;;
8088;SDS011;57635;49.194;12.104;2023-08-24T02:50:34;9.50;;;8.70;;
8088;SDS011;57635;49.194;12.104;2023-08-24T02:53:02;9.53;;;8.83;;
8088;SDS011;57635;49.194;12.104;2023-08-24T02:55:31;10.57;;;9.60;;
8088;SDS011;57635;49.194;12.104;2023-08-24T02:57:59;9.63;;;8.80;;
8088;SDS011;57635;49.194;12.104;2023-08-24T03:00:27;9.40;;;8.27;;
8088;SDS011;57635;49.194;12.104;2023-08-24T03:02:54;10.13;;;9.33;;
8088;SDS011;57635;49.194;12.104;2023-08-24T03:05:22;9.40;;;8.70;;
8088;SDS011;57635;49.194;12.104;2023-08-24T03:07:51;9.87;;;8.97;;
8088;SDS011;57635;49.194;12.104;2023-08-24T03:10:20;9.40;;;8.57;;
8088;SDS011;57635;49.194;12.104;2023-08-24T03:12:48;9.60;;;8.77;;
8088;SDS011;57635;49.194;12.104;2023-08-24T03:15:15;9.27;;;8.67;;
8088;SDS011;57635;49.194;12.104;2023-08-24T03:17:43;9.97;;;9.03;;
8088;SDS011;57635;49.194;12.104;2023-08-24T03:20:11;9.00;;;8.40;;
8088;SDS011;57635;49.194;12.104;2023-08-24T03:22:40;9.80;;;9.03;;
8088;SDS011;57635;49.194;12.104;2023-08-24T03:25:09;9.77;;;8.83;;
8088;SDS011;57635;49.194;12.104;2023-08-24T03:27:37;10.13;;;9.13;;
8088;SDS011;57635;49.194;12.104;2023-08-24T03:30:05;8.73;;;8.17;;
8088;SDS011;57635;49.194;12.104;2023-08-24T03:32:34;9.87;;;9.00;;
8088;SDS011;57635;49.194;12.104;2023-08-24T03:35:02;10.10;;;9.43;;
8088;SDS011;57635;49.194;12.104;2023-08-24T03:37:31;9.93;;;9.03;;
8088;SDS011;57635;49.194;12.104;2023-08-24T03:39:58;9.30;;;8.60;;
8088;SDS011;57635;49.194;12.104;2023-08-24T03:42:28;10.50;;;9.60;;
8088;SDS011;57635;49.194;12.104;2023-08-24T03:44:55;10.83;;;9.73;;
8088;SDS011;57635;49.194;12.104;2023-08-24T03:47:24;10.07;;;9.30;;
8088;SDS011;57635;49.194;12.104;2023-08-24T03:49:52;10.87;;;9.97;;
8088;SDS011;57635;49.194;12.104;2023-08-24T03:52:20;10.53;;;9.70;;
8088;SDS011;57635;49.194;12.104;2023-08-24T03:54:48;11.00;;;10.30;;
8088;SDS011;57635;49.194;12.104;2023-08-24T03:57:16;10.87;;;10.17;;
8088;SDS011;57635;49.194;12.104;2023-08-24T03:59:45;11.20;;;10.20;;
8088;SDS011;57635;49.194;12.104;2023-08-24T04:02:13;10.83;;;10.03;;
8088;SDS011;57635;49.194;12.104;2023-08-24T04:04:40;11.17;;;10.20;;
8088;SDS011;57635;49.194;12.104;2023-08-24T04:07:08;10.73;;;9.83;;
8088;SDS011;57635;49.194;12.104;2023-08-24T04:09:36;11.00;;;10.10;;
8088;SDS011;57635;49.194;12.104;2023-08-24T04:12:04;11.60;;;10.80;;
8088;SDS011;57635;49.194;12.104;2023-08-24T04:14:32;11.70;;;10.73;;
8088;SDS011;57635;49.194;12.104;2023-08-24T04:17:01;11.77;;;10.77;;
8088;SDS011;57635;49.194;12.104;2023-08-24T04:19:29;12.63;;;11.63;;
8088;SDS011;57635;49.194;12.104;2023-08-24T04:21:57;12.00;;;11.00;;
8088;SDS011;57635;49.194;12.104;2023-08-24T04:24:25;12.13;;;11.33;;
8088;SDS011;57635;49.194;12.104;2023-08-24T04:26:52;13.43;;;12.17;;
8088;SDS011;57635;49.194;12.104;2023-08-24T04:29:20;12.03;;;10.90;;
8088;SDS011;57635;49.194;12.104;2023-08-24T04:31:48;12.13;;;10.93;;
8088;SDS011;57635;49.194;12.104;2023-08-24T04:34:17;12.23;;;11.33;;
8088;SDS011;57635;49.194;12.104;2023-08-24T04:36:48;11.57;;;10.57;;
8088;SDS011;57635;49.194;12.104;2023-08-24T04:39:16;12.17;;;11.17;;
8088;SDS011;57635;49.194;12.104;2023-08-24T04:41:44;11.80;;;10.80;;
8088;SDS011;57635;49.194;12.104;2023-08-24T04:44:12;12.87;;;11.60;;
8088;SDS011;57635;49.194;12.104;2023-08-24T04:46:40;12.07;;;11.13;;
8088;SDS011;57635;49.194;12.104;2023-08-24T04:49:08;12.30;;;11.30;;
8088;SDS011;57635;49.194;12.104;2023-08-24T04:51:37;12.20;;;11.30;;
8088;SDS011;57635;49.194;12.104;2023-08-24T04:54:05;12.53;;;11.60;;
8088;SDS011;57635;49.194;12.104;2023-08-24T04:56:32;12.10;;;11.00;;
8088;SDS011;57635;49.194;12.104;2023-08-24T04:59:01;12.23;;;11.33;;
8088;SDS011;57635;49.194;12.104;2023-08-24T05:01:29;12.17;;;11.17;;
8088;SDS011;57635;49.194;12.104;2023-08-24T05:03:58;11.80;;;10.90;;
8088;SDS011;57635;49.194;12.104;2023-08-24T05:06:26;12.37;;;11.40;;
8088;SDS011;57635;49.194;12.104;2023-08-24T05:08:55;12.17;;;11.17;;
8088;SDS011;57635;49.194;12.104;2023-08-24T05:11:24;12.70;;;11.80;;
8088;SDS011;57635;49.194;12.104;2023-08-24T05:13:55;12.30;;;11.47;;
8088;SDS011;57635;49.194;12.104;2023-08-24T05:16:23;12.37;;;11.53;;
8088;SDS011;57635;49.194;12.104;2023-08-24T05:18:51;12.40;;;11.50;;
8088;SDS011;57635;49.194;12.104;2023-08-24T05:21:18;12.83;;;11.93;;
8088;SDS011;57635;49.194;12.104;2023-08-24T05:23:46;13.10;;;12.20;;
8088;SDS011;57635;49.194;12.104;2023-08-24T05:26:15;12.73;;;11.73;;
8088;SDS011;57635;49.194;12.104;2023-08-24T05:28:48;12.83;;;11.90;;
8088;SDS011;57635;49.194;12.104;2023-08-24T05:31:16;11.73;;;10.97;;
8088;SDS011;57635;49.194;12.104;2023-08-24T05:33:46;12.13;;;11.30;;
8088;SDS011;57635;49.194;12.104;2023-08-24T05:36:14;12.47;;;11.57;;
8088;SDS011;57635;49.194;12.104;2023-08-24T05:38:42;12.30;;;11.30;;
8088;SDS011;57635;49.194;12.104;2023-08-24T05:41:26;11.83;;;10.87;;
8088;SDS011;57635;49.194;12.104;2023-08-24T05:43:54;11.97;;;10.87;;
8088;SDS011;57635;49.194;12.104;2023-08-24T05:46:23;11.63;;;10.73;;
8088;SDS011;57635;49.194;12.104;2023-08-24T05:48:51;11.83;;;10.93;;
8088;SDS011;57635;49.194;12.104;2023-08-24T05:51:19;12.67;;;11.73;;
8088;SDS011;57635;49.194;12.104;2023-08-24T05:53:46;10.93;;;10.03;;
8088;SDS011;57635;49.194;12.104;2023-08-24T05:56:14;10.97;;;9.97;;
8088;SDS011;57635;49.194;12.104;2023-08-24T05:58:43;10.83;;;10.00;;
8088;SDS011;57635;49.194;12.104;2023-08-24T06:01:11;11.20;;;10.20;;
8088;SDS011;57635;49.194;12.104;2023-08-24T06:03:38;12.20;;;11.20;;
8088;SDS011;57635;49.194;12.104;2023-08-24T06:06:06;11.20;;;10.20;;
8088;SDS011;57635;49.194;12.104;2023-08-24T06:08:35;10.97;;;10.17;;
8088;SDS011;57635;49.194;12.104;2023-08-24T06:11:03;10.97;;;10.17;;
8088;SDS011;57635;49.194;12.104;2023-08-24T06:13:30;10.90;;;9.97;;
8088;SDS011;57635;49.194;12.104;2023-08-24T06:15:59;11.37;;;10.37;;
8088;SDS011;57635;49.194;12.104;2023-08-24T06:18:28;11.30;;;10.43;;
8088;SDS011;57635;49.194;12.104;2023-08-24T06:20:55;9.90;;;9.30;;
8088;SDS011;57635;49.194;12.104;2023-08-24T06:23:23;10.47;;;9.67;;
8088;SDS011;57635;49.194;12.104;2023-08-24T06:25:51;10.57;;;9.77;;
8088;SDS011;57635;49.194;12.104;2023-08-24T06:28:18;9.97;;;9.07;;
8088;SDS011;57635;49.194;12.104;2023-08-24T06:30:46;10.70;;;8.87;;
8088;SDS011;57635;49.194;12.104;2023-08-24T06:33:16;8.10;;;7.50;;
8088;SDS011;57635;49.194;12.104;2023-08-24T06:35:44;10.00;;;9.10;;
8088;SDS011;57635;49.194;12.104;2023-08-24T06:38:13;9.47;;;8.83;;
8088;SDS011;57635;49.194;12.104;2023-08-24T06:40:40;8.87;;;8.17;;
8088;SDS011;57635;49.194;12.104;2023-08-24T06:43:08;9.30;;;8.50;;
8088;SDS011;57635;49.194;12.104;2023-08-24T06:45:36;8.93;;;8.33;;
8088;SDS011;57635;49.194;12.104;2023-08-24T06:48:04;8.40;;;7.73;;
8088;SDS011;57635;49.194;12.104;2023-08-24T06:50:34;9.07;;;8.23;;
8088;SDS011;57635;49.194;12.104;2023-08-24T06:53:03;8.43;;;7.67;;
8088;SDS011;57635;49.194;12.104;2023-08-24T06:55:31;7.53;;;7.07;;
8088;SDS011;57635;49.194;12.104;2023-08-24T06:57:59;7.83;;;7.30;;
8088;SDS011;57635;49.194;12.104;2023-08-24T07:00:26;7.77;;;7.07;;
8088;SDS011;57635;49.194;12.104;2023-08-24T07:02:54;7.27;;;6.83;;
8088;SDS011;57635;49.194;12.104;2023-08-24T07:05:22;7.83;;;7.20;;
8088;SDS011;57635;49.194;12.104;2023-08-24T07:07:51;7.50;;;6.90;;
8088;SDS011;57635;49.194;12.104;2023-08-24T07:10:19;7.70;;;7.10;;
8088;SDS011;57635;49.194;12.104;2023-08-24T07:12:47;7.27;;;6.87;;
8088;SDS011;57635;49.194;12.104;2023-08-24T07:15:15;6.63;;;6.13;;
8088;SDS011;57635;49.194;12.104;2023-08-24T07:17:43;7.30;;;6.60;;
8088;SDS011;57635;49.194;12.104;2023-08-24T07:20:10;6.80;;;6.30;;
8088;SDS011;57635;49.194;12.104;2023-08-24T07:22:39;6.13;;;5.63;;
8088;SDS011;57635;49.194;12.104;2023-08-24T07:25:09;6.83;;;6.23;;
8088;SDS011;57635;49.194;12.104;2023-08-24T07:27:37;6.90;;;6.40;;
8088;SDS011;57635;49.194;12.104;2023-08-24T07:30:06;6.37;;;5.87;;
8088;SDS011;57635;49.194;12.104;2023-08-24T07:32:51;7.20;;;6.60;;
8088;SDS011;57635;49.194;12.104;2023-08-24T07:35:19;7.00;;;6.47;;
8088;SDS011;57635;49.194;12.104;2023-08-24T07:37:47;7.37;;;6.60;;
8088;SDS011;57635;49.194;12.104;2023-08-24T07:40:16;16.23;;;7.23;;
8088;SDS011;57635;49.194;12.104;2023-08-24T07:42:45;9.70;;;6.77;;
8088;SDS011;57635;49.194;12.104;2023-08-24T07:45:13;7.27;;;5.47;;
8088;SDS011;57635;49.194;12.104;2023-08-24T07:47:41;6.83;;;6.33;;
8088;SDS011;57635;49.194;12.104;2023-08-24T07:50:09;5.90;;;5.43;;
8088;SDS011;57635;49.194;12.104;2023-08-24T07:52:37;5.80;;;5.40;;
8088;SDS011;57635;49.194;12.104;2023-08-24T07:55:05;5.97;;;5.50;;
8088;SDS011;57635;49.194;12.104;2023-08-24T07:57:35;6.30;;;5.90;;
8088;SDS011;57635;49.194;12.104;2023-08-24T08:00:03;5.40;;;5.10;;
8088;SDS011;57635;49.194;12.104;2023-08-24T08:02:34;6.17;;;5.50;;
8088;SDS011;57635;49.194;12.104;2023-08-24T08:05:04;5.57;;;5.10;;
8088;SDS011;57635;49.194;12.104;2023-08-24T08:07:33;8.50;;;5.80;;
8088;SDS011;57635;49.194;12.104;2023-08-24T08:10:01;5.67;;;5.37;;
8088;SDS011;57635;49.194;12.104;2023-08-24T08:12:29;5.73;;;5.30;;
8088;SDS011;57635;49.194;12.104;2023-08-24T08:14:59;9.27;;;6.90;;
8088;SDS011;57635;49.194;12.104;2023-08-24T08:17:27;6.03;;;5.43;;
8088;SDS011;57635;49.194;12.104;2023-08-24T08:19:57;6.33;;;5.63;;
8088;SDS011;57635;49.194;12.104;2023-08-24T08:22:24;5.47;;;5.17;;
8088;SDS011;57635;49.194;12.104;2023-08-24T08:24:52;6.30;;;5.87;;
8088;SDS011;57635;49.194;12.104;2023-08-24T08:27:22;6.40;;;5.80;;
8088;SDS011;57635;49.194;12.104;2023-08-24T08:29:50;8.40;;;6.03;;
8088;SDS011;57635;49.194;12.104;2023-08-24T08:32:19;8.30;;;5.50;;
8088;SDS011;57635;49.194;12.104;2023-08-24T08:34:47;6.20;;;5.80;;
8088;SDS011;57635;49.194;12.104;2023-08-24T08:37:14;12.23;;;6.53;;
8088;SDS011;57635;49.194;12.104;2023-08-24T08:39:42;10.53;;;5.37;;
8088;SDS011;57635;49.194;12.104;2023-08-24T08:42:13;7.87;;;5.33;;
8088;SDS011;57635;49.194;12.104;2023-08-24T08:44:41;6.13;;;5.37;;
8088;SDS011;57635;49.194;12.104;2023-08-24T08:47:10;5.90;;;5.47;;
8088;SDS011;57635;49.194;12.104;2023-08-24T08:49:42;6.57;;;5.40;;
8088;SDS011;57635;49.194;12.104;2023-08-24T08:52:10;6.40;;;5.33;;
8088;SDS011;57635;49.194;12.104;2023-08-24T08:54:39;5.93;;;5.10;;
8088;SDS011;57635;49.194;12.104;2023-08-24T08:57:08;5.43;;;5.00;;
8088;SDS011;57635;49.194;12.104;2023-08-24T08:59:35;5.73;;;5.13;;
8088;SDS011;57635;49.194;12.104;2023-08-24T09:02:04;5.20;;;4.90;;
8088;SDS011;57635;49.194;12.104;2023-08-24T09:04:32;5.37;;;4.87;;
8088;SDS011;57635;49.194;12.104;2023-08-24T09:07:02;5.40;;;5.10;;
8088;SDS011;57635;49.194;12.104;2023-08-24T09:09:36;6.07;;;5.50;;
8088;SDS011;57635;49.194;12.104;2023-08-24T09:12:05;7.13;;;5.37;;
8088;SDS011;57635;49.194;12.104;2023-08-24T09:14:33;6.63;;;5.03;;
8088;SDS011;57635;49.194;12.104;2023-08-24T09:17:01;6.20;;;4.87;;
8088;SDS011;57635;49.194;12.104;2023-08-24T09:19:29;5.27;;;4.83;;
8088;SDS011;57635;49.194;12.104;2023-08-24T09:21:58;5.80;;;5.17;;
8088;SDS011;57635;49.194;12.104;2023-08-24T09:24:30;5.37;;;4.87;;
8088;SDS011;57635;49.194;12.104;2023-08-24T09:26:59;7.87;;;5.40;;
8088;SDS011;57635;49.194;12.104;2023-08-24T09:29:27;9.20;;;4.87;;
8088;SDS011;57635;49.194;12.104;2023-08-24T09:31:54;22.03;;;8.37;;
8088;SDS011;57635;49.194;12.104;2023-08-24T09:34:23;5.57;;;5.10;;
8088;SDS011;57635;49.194;12.104;2023-08-24T09:36:53;5.50;;;4.90;;
8088;SDS011;57635;49.194;12.104;2023-08-24T09:39:21;5.40;;;5.07;;
8088;SDS011;57635;49.194;12.104;2023-08-24T09:41:50;5.00;;;4.60;;
8088;SDS011;57635;49.194;12.104;2023-08-24T09:44:18;7.93;;;5.37;;
8088;SDS011;57635;49.194;12.104;2023-08-24T09:46:46;11.07;;;6.47;;
8088;SDS011;57635;49.194;12.104;2023-08-24T09:49:13;6.27;;;5.03;;
8088;SDS011;57635;49.194;12.104;2023-08-24T09:51:41;5.23;;;4.83;;
8088;SDS011;57635;49.194;12.104;2023-08-24T09:54:11;5.67;;;4.80;;
8088;SDS011;57635;49.194;12.104;2023-08-24T09:56:40;5.40;;;4.93;;
8088;SDS011;57635;49.194;12.104;2023-08-24T09:59:13;4.90;;;4.43;;
8088;SDS011;57635;49.194;12.104;2023-08-24T10:01:45;5.87;;;4.90;;
8088;SDS011;57635;49.194;12.104;2023-08-24T10:04:14;4.80;;;4.40;;
8088;SDS011;57635;49.194;12.104;2023-08-24T10:06:44;6.23;;;4.43;;
8088;SDS011;57635;49.194;12.104;2023-08-24T10:09:19;8.40;;;4.50;;
8088;SDS011;57635;49.194;12.104;2023-08-24T10:11:50;4.20;;;3.90;;
8088;SDS011;57635;49.194;12.104;2023-08-24T10:14:23;3.57;;;3.30;;
8088;SDS011;57635;49.194;12.104;2023-08-24T10:16:53;4.17;;;3.77;;
8088;SDS011;57635;49.194;12.104;2023-08-24T10:19:21;3.47;;;3.27;;
8088;SDS011;57635;49.194;12.104;2023-08-24T10:21:49;4.57;;;3.83;;
8088;SDS011;57635;49.194;12.104;2023-08-24T10:24:17;5.07;;;4.03;;
8088;SDS011;57635;49.194;12.104;2023-08-24T10:26:47;3.83;;;3.63;;
8088;SDS011;57635;49.194;12.104;2023-08-24T10:29:15;4.67;;;3.90;;
8088;SDS011;57635;49.194;12.104;2023-08-24T10:31:44;4.23;;;3.93;;
8088;SDS011;57635;49.194;12.104;2023-08-24T10:34:12;4.70;;;4.30;;
8088;SDS011;57635;49.194;12.104;2023-08-24T10:36:40;4.77;;;3.67;;
8088;SDS011;57635;49.194;12.104;2023-08-24T10:39:08;5.83;;;3.90;;
8088;SDS011;57635;49.194;12.104;2023-08-24T10:41:46;4.43;;;4.13;;
8088;SDS011;57635;49.194;12.104;2023-08-24T10:44:19;4.17;;;3.97;;
8088;SDS011;57635;49.194;12.104;2023-08-24T10:49:35;4.43;;;3.60;;
8088;SDS011;57635;49.194;12.104;2023-08-24T10:52:16;4.07;;;3.77;;
8088;SDS011;57635;49.194;12.104;2023-08-24T10:54:45;4.80;;;4.40;;
8088;SDS011;57635;49.194;12.104;2023-08-24T10:57:18;4.20;;;3.80;;
8088;SDS011;57635;49.194;12.104;2023-08-24T11:00:00;4.30;;;4.10;;
8088;SDS011;57635;49.194;12.104;2023-08-24T11:02:42;4.17;;;3.87;;
8088;SDS011;57635;49.194;12.104;2023-08-24T11:05:17;4.13;;;3.43;;
8088;SDS011;57635;49.194;12.104;2023-08-24T11:07:49;4.10;;;3.73;;
8088;SDS011;57635;49.194;12.104;2023-08-24T11:10:17;4.37;;;3.97;;
8088;SDS011;57635;49.194;12.104;2023-08-24T11:13:05;4.13;;;3.83;;
8088;SDS011;57635;49.194;12.104;2023-08-24T11:15:42;3.90;;;3.47;;
8088;SDS011;57635;49.194;12.104;2023-08-24T11:18:19;3.97;;;3.70;;
8088;SDS011;57635;49.194;12.104;2023-08-24T11:20:49;4.10;;;3.90;;
8088;SDS011;57635;49.194;12.104;2023-08-24T11:23:19;4.10;;;3.80;;
8088;SDS011;57635;49.194;12.104;2023-08-24T11:25:48;4.47;;;4.07;;
8088;SDS011;57635;49.194;12.104;2023-08-24T11:28:17;6.13;;;4.00;;
8088;SDS011;57635;49.194;12.104;2023-08-24T11:30:46;4.30;;;4.00;;
8088;SDS011;57635;49.194;12.104;2023-08-24T11:33:16;4.90;;;4.50;;
8088;SDS011;57635;49.194;12.104;2023-08-24T11:35:45;4.60;;;4.30;;
8088;SDS011;57635;49.194;12.104;2023-08-24T11:38:13;4.40;;;4.10;;
8088;SDS011;57635;49.194;12.104;2023-08-24T11:40:40;3.90;;;3.70;;
8088;SDS011;57635;49.194;12.104;2023-08-24T11:43:08;5.17;;;3.47;;
8088;SDS011;57635;49.194;12.104;2023-08-24T11:45:36;3.67;;;3.47;;
8088;SDS011;57635;49.194;12.104;2023-08-24T11:48:07;6.07;;;3.83;;
8088;SDS011;57635;49.194;12.104;2023-08-24T11:50:37;4.00;;;3.67;;
8088;SDS011;57635;49.194;12.104;2023-08-24T11:53:06;4.20;;;3.83;;
8088;SDS011;57635;49.194;12.104;2023-08-24T11:55:34;3.60;;;3.30;;
8088;SDS011;57635;49.194;12.104;2023-08-24T11:58:17;4.53;;;4.10;;
8088;SDS011;57635;49.194;12.104;2023-08-24T12:00:45;4.00;;;3.63;;
8088;SDS011;57635;49.194;12.104;2023-08-24T12:03:13;7.03;;;4.43;;
8088;SDS011;57635;49.194;12.104;2023-08-24T12:05:42;4.27;;;3.97;;
8088;SDS011;57635;49.194;12.104;2023-08-24T12:08:11;5.17;;;3.60;;
8088;SDS011;57635;49.194;12.104;2023-08-24T12:10:42;3.93;;;3.73;;
8088;SDS011;57635;49.194;12.104;2023-08-24T12:13:11;4.10;;;3.80;;
8088;SDS011;57635;49.194;12.104;2023-08-24T12:15:40;4.47;;;4.07;;
8088;SDS011;57635;49.194;12.104;2023-08-24T12:18:08;4.90;;;3.30;;
8088;SDS011;57635;49.194;12.104;2023-08-24T12:20:36;4.37;;;4.17;;
8088;SDS011;57635;49.194;12.104;2023-08-24T12:23:05;3.93;;;3.53;;
8088;SDS011;57635;49.194;12.104;2023-08-24T12:25:36;4.23;;;3.97;;
8088;SDS011;57635;49.194;12.104;2023-08-24T12:28:08;4.27;;;3.57;;
8088;SDS011;57635;49.194;12.104;2023-08-24T12:30:45;4.53;;;4.23;;
8088;SDS011;57635;49.194;12.104;2023-08-24T12:33:24;4.97;;;3.80;;
8088;SDS011;57635;49.194;12.104;2023-08-24T12:35:52;3.93;;;3.63;;
8088;SDS011;57635;49.194;12.104;2023-08-24T12:38:21;3.97;;;3.73;;
8088;SDS011;57635;49.194;12.104;2023-08-24T12:40:50;4.40;;;4.10;;
8088;SDS011;57635;49.194;12.104;2023-08-24T12:43:18;4.83;;;3.80;;
8088;SDS011;57635;49.194;12.104;2023-08-24T12:45:46;3.90;;;3.60;;
8088;SDS011;57635;49.194;12.104;2023-08-24T12:48:13;4.67;;;4.37;;
8088;SDS011;57635;49.194;12.104;2023-08-24T12:50:41;4.53;;;4.10;;
8088;SDS011;57635;49.194;12.104;2023-08-24T12:53:09;5.47;;;4.20;;
8088;SDS011;57635;49.194;12.104;2023-08-24T12:55:39;4.17;;;3.87;;
8088;SDS011;57635;49.194;12.104;2023-08-24T12:58:07;4.23;;;3.50;;
8088;SDS011;57635;49.194;12.104;2023-08-24T13:00:35;3.70;;;3.50;;
8088;SDS011;57635;49.194;12.104;2023-08-24T13:03:03;4.03;;;3.67;;
8088;SDS011;57635;49.194;12.104;2023-08-24T13:05:31;3.97;;;3.60;;
8088;SDS011;57635;49.194;12.104;2023-08-24T13:08:00;3.57;;;3.20;;
8088;SDS011;57635;49.194;12.104;2023-08-24T13:10:28;3.93;;;3.50;;
8088;SDS011;57635;49.194;12.104;2023-08-24T13:12:57;3.67;;;3.50;;
8088;SDS011;57635;49.194;12.104;2023-08-24T13:15:25;4.57;;;4.20;;
8088;SDS011;57635;49.194;12.104;2023-08-24T13:17:52;3.83;;;3.45;;
8088;SDS011;57635;49.194;12.104;2023-08-24T13:20:20;3.90;;;3.60;;
8088;SDS011;57635;49.194;12.104;2023-08-24T13:22:48;4.07;;;3.38;;
8088;SDS011;57635;49.194;12.104;2023-08-24T13:25:16;4.00;;;3.63;;
8088;SDS011;57635;49.194;12.104;2023-08-24T13:27:45;3.83;;;3.53;;
8088;SDS011;57635;49.194;12.104;2023-08-24T13:30:14;3.80;;;3.60;;
8088;SDS011;57635;49.194;12.104;2023-08-24T13:32:41;3.75;;;3.33;;
8088;SDS011;57635;49.194;12.104;2023-08-24T13:35:09;5.82;;;3.28;;
8088;SDS011;57635;49.194;12.104;2023-08-24T13:37:37;6.53;;;3.85;;
8088;SDS011;57635;49.194;12.104;2023-08-24T13:40:05;4.90;;;3.80;;
8088;SDS011;57635;49.194;12.104;2023-08-24T13:42:34;6.18;;;3.75;;
8088;SDS011;57635;49.194;12.104;2023-08-24T13:45:02;4.07;;;3.55;;
8088;SDS011;57635;49.194;12.104;2023-08-24T13:47:32;3.88;;;3.55;;
8088;SDS011;57635;49.194;12.104;2023-08-24T13:49:59;3.65;;;3.35;;
8088;SDS011;57635;49.194;12.104;2023-08-24T13:52:27;4.50;;;4.10;;
8088;SDS011;57635;49.194;12.104;2023-08-24T13:54:55;3.67;;;3.38;;
8088;SDS011;57635;49.194;12.104;2023-08-24T13:57:36;3.55;;;3.35;;
8088;SDS011;57635;49.194;12.104;2023-08-24T14:00:04;3.83;;;3.53;;
8088;SDS011;57635;49.194;12.104;2023-08-24T14:02:36;6.40;;;3.55;;
8088;SDS011;57635;49.194;12.104;2023-08-24T14:05:04;4.10;;;3.80;;
8088;SDS011;57635;49.194;12.104;2023-08-24T14:07:35;5.45;;;4.10;;
8088;SDS011;57635;49.194;12.104;2023-08-24T14:10:03;4.57;;;3.78;;
8088;SDS011;57635;49.194;12.104;2023-08-24T14:12:32;3.67;;;3.35;;
8088;SDS011;57635;49.194;12.104;2023-08-24T14:15:00;3.60;;;3.20;;
8088;SDS011;57635;49.194;12.104;2023-08-24T14:17:28;4.47;;;4.10;;
8088;SDS011;57635;49.194;12.104;2023-08-24T14:19:57;4.35;;;3.58;;
8088;SDS011;57635;49.194;12.104;2023-08-24T14:22:25;3.30;;;3.10;;
8088;SDS011;57635;49.194;12.104;2023-08-24T14:24:53;4.63;;;3.78;;
8088;SDS011;57635;49.194;12.104;2023-08-24T14:27:21;4.43;;;3.67;;
8088;SDS011;57635;49.194;12.104;2023-08-24T14:29:48;3.85;;;3.55;;
8088;SDS011;57635;49.194;12.104;2023-08-24T14:32:16;4.22;;;3.30;;
8088;SDS011;57635;49.194;12.104;2023-08-24T14:34:44;4.63;;;3.47;;
8088;SDS011;57635;49.194;12.104;2023-08-24T14:37:13;3.30;;;2.95;;
8088;SDS011;57635;49.194;12.104;2023-08-24T14:39:41;3.67;;;3.20;;
8088;SDS011;57635;49.194;12.104;2023-08-24T14:42:08;4.35;;;3.50;;
8088;SDS011;57635;49.194;12.104;2023-08-24T14:44:36;5.43;;;3.08;;
8088;SDS011;57635;49.194;12.104;2023-08-24T14:47:04;4.70;;;3.40;;
8088;SDS011;57635;49.194;12.104;2023-08-24T14:49:32;6.45;;;3.40;;
8088;SDS011;57635;49.194;12.104;2023-08-24T14:51:59;5.72;;;3.60;;
8088;SDS011;57635;49.194;12.104;2023-08-24T14:54:28;5.78;;;3.80;;
8088;SDS011;57635;49.194;12.104;2023-08-24T14:56:56;6.25;;;3.50;;